sensor_id;sensor_type;location;lat;lon;timestamp;P1;durP1;ratioP1;P2;durP2;ratioP2
45316;SDS011;31053;55.870;37.592;2023-05-07T00:02:37;11.50;;;2.90;;
45316;SDS011;31053;55.870;37.592;2023-05-07T00:05:42;7.80;;;3.72;;
45316;SDS011;31053;55.870;37.592;2023-05-07T00:08:47;5.93;;;2.80;;
45316;SDS011;31053;55.870;37.592;2023-05-07T00:11:52;8.13;;;3.90;;
45316;SDS011;31053;55.870;37.592;2023-05-07T00:14:57;8.63;;;4.25;;
45316;SDS011;31053;55.870;37.592;2023-05-07T00:18:02;5.18;;;2.58;;
45316;SDS011;31053;55.870;37.592;2023-05-07T00:21:10;7.25;;;2.95;;
45316;SDS011;31053;55.870;37.592;2023-05-07T00:24:15;5.82;;;2.90;;
45316;SDS011;31053;55.870;37.592;2023-05-07T00:36:10;6.20;;;2.90;;
45316;SDS011;31053;55.870;37.592;2023-05-07T00:39:23;15.30;;;3.95;;
45316;SDS011;31053;55.870;37.592;2023-05-07T00:42:28;5.78;;;3.00;;
45316;SDS011;31053;55.870;37.592;2023-05-07T00:45:36;9.43;;;4.18;;
45316;SDS011;31053;55.870;37.592;2023-05-07T00:48:47;8.80;;;3.42;;
45316;SDS011;31053;55.870;37.592;2023-05-07T00:51:53;7.05;;;3.80;;
45316;SDS011;31053;55.870;37.592;2023-05-07T00:54:59;7.40;;;4.03;;
45316;SDS011;31053;55.870;37.592;2023-05-07T00:58:09;8.02;;;3.00;;
45316;SDS011;31053;55.870;37.592;2023-05-07T01:04:53;7.53;;;3.35;;
45316;SDS011;31053;55.870;37.592;2023-05-07T01:11:02;15.30;;;3.70;;
45316;SDS011;31053;55.870;37.592;2023-05-07T01:14:09;5.88;;;3.03;;
45316;SDS011;31053;55.870;37.592;2023-05-07T01:17:15;16.00;;;3.90;;
45316;SDS011;31053;55.870;37.592;2023-05-07T01:20:20;10.75;;;3.95;;
45316;SDS011;31053;55.870;37.592;2023-05-07T01:23:27;20.98;;;6.78;;
45316;SDS011;31053;55.870;37.592;2023-05-07T01:26:33;3.67;;;2.25;;
45316;SDS011;31053;55.870;37.592;2023-05-07T01:29:38;12.38;;;4.13;;
45316;SDS011;31053;55.870;37.592;2023-05-07T01:32:48;11.10;;;4.15;;
45316;SDS011;31053;55.870;37.592;2023-05-07T01:35:56;8.55;;;3.22;;
45316;SDS011;31053;55.870;37.592;2023-05-07T01:39:02;15.97;;;3.17;;
45316;SDS011;31053;55.870;37.592;2023-05-07T01:42:07;6.75;;;3.80;;
45316;SDS011;31053;55.870;37.592;2023-05-07T01:45:13;10.02;;;3.40;;
45316;SDS011;31053;55.870;37.592;2023-05-07T01:48:18;7.72;;;2.47;;
45316;SDS011;31053;55.870;37.592;2023-05-07T01:51:26;12.27;;;3.05;;
45316;SDS011;31053;55.870;37.592;2023-05-07T01:54:33;4.53;;;2.25;;
45316;SDS011;31053;55.870;37.592;2023-05-07T01:57:39;4.95;;;2.88;;
45316;SDS011;31053;55.870;37.592;2023-05-07T02:00:47;9.82;;;3.72;;
45316;SDS011;31053;55.870;37.592;2023-05-07T02:03:53;13.48;;;3.13;;
45316;SDS011;31053;55.870;37.592;2023-05-07T02:07:02;10.35;;;3.22;;
45316;SDS011;31053;55.870;37.592;2023-05-07T02:10:08;5.97;;;3.15;;
45316;SDS011;31053;55.870;37.592;2023-05-07T02:13:14;3.53;;;2.20;;
45316;SDS011;31053;55.870;37.592;2023-05-07T02:16:19;6.45;;;2.60;;
45316;SDS011;31053;55.870;37.592;2023-05-07T02:19:25;4.40;;;2.17;;
45316;SDS011;31053;55.870;37.592;2023-05-07T02:22:30;6.38;;;2.22;;
45316;SDS011;31053;55.870;37.592;2023-05-07T02:25:35;4.22;;;2.47;;
45316;SDS011;31053;55.870;37.592;2023-05-07T02:28:40;4.47;;;2.13;;
45316;SDS011;31053;55.870;37.592;2023-05-07T02:31:48;9.30;;;3.03;;
45316;SDS011;31053;55.870;37.592;2023-05-07T02:34:57;6.82;;;2.28;;
45316;SDS011;31053;55.870;37.592;2023-05-07T02:38:02;4.85;;;2.70;;
45316;SDS011;31053;55.870;37.592;2023-05-07T02:48:32;7.75;;;2.53;;
45316;SDS011;31053;55.870;37.592;2023-05-07T02:51:42;5.63;;;2.88;;
45316;SDS011;31053;55.870;37.592;2023-05-07T02:54:55;10.98;;;2.65;;
45316;SDS011;31053;55.870;37.592;2023-05-07T02:58:00;8.02;;;2.70;;
45316;SDS011;31053;55.870;37.592;2023-05-07T03:01:05;8.18;;;2.72;;
45316;SDS011;31053;55.870;37.592;2023-05-07T03:04:36;3.95;;;1.83;;
45316;SDS011;31053;55.870;37.592;2023-05-07T03:07:43;5.53;;;2.22;;
45316;SDS011;31053;55.870;37.592;2023-05-07T03:10:52;3.80;;;2.35;;
45316;SDS011;31053;55.870;37.592;2023-05-07T03:13:58;7.32;;;2.83;;
45316;SDS011;31053;55.870;37.592;2023-05-07T03:17:03;5.93;;;2.33;;
45316;SDS011;31053;55.870;37.592;2023-05-07T03:20:08;8.18;;;2.40;;
45316;SDS011;31053;55.870;37.592;2023-05-07T03:23:14;8.45;;;2.80;;
45316;SDS011;31053;55.870;37.592;2023-05-07T03:26:19;4.60;;;2.60;;
45316;SDS011;31053;55.870;37.592;2023-05-07T03:29:24;2.83;;;1.75;;
45316;SDS011;31053;55.870;37.592;2023-05-07T03:32:30;5.60;;;1.73;;
45316;SDS011;31053;55.870;37.592;2023-05-07T03:35:34;3.13;;;2.00;;
45316;SDS011;31053;55.870;37.592;2023-05-07T03:38:40;3.22;;;1.98;;
45316;SDS011;31053;55.870;37.592;2023-05-07T03:41:45;4.57;;;1.90;;
45316;SDS011;31053;55.870;37.592;2023-05-07T03:44:50;2.92;;;1.85;;
45316;SDS011;31053;55.870;37.592;2023-05-07T03:47:55;8.85;;;2.30;;
45316;SDS011;31053;55.870;37.592;2023-05-07T03:51:01;9.95;;;3.08;;
45316;SDS011;31053;55.870;37.592;2023-05-07T03:54:09;7.82;;;2.22;;
45316;SDS011;31053;55.870;37.592;2023-05-07T03:57:17;5.45;;;2.60;;
45316;SDS011;31053;55.870;37.592;2023-05-07T04:00:22;3.22;;;1.70;;
45316;SDS011;31053;55.870;37.592;2023-05-07T04:03:26;3.75;;;1.90;;
45316;SDS011;31053;55.870;37.592;2023-05-07T04:06:35;3.00;;;1.73;;
45316;SDS011;31053;55.870;37.592;2023-05-07T04:09:40;4.50;;;1.92;;
45316;SDS011;31053;55.870;37.592;2023-05-07T04:12:45;2.83;;;1.48;;
45316;SDS011;31053;55.870;37.592;2023-05-07T04:19:11;4.63;;;1.42;;
45316;SDS011;31053;55.870;37.592;2023-05-07T04:22:17;7.28;;;1.80;;
45316;SDS011;31053;55.870;37.592;2023-05-07T04:25:24;6.03;;;2.60;;
45316;SDS011;31053;55.870;37.592;2023-05-07T04:28:34;3.95;;;1.95;;
45316;SDS011;31053;55.870;37.592;2023-05-07T04:31:40;4.22;;;1.73;;
45316;SDS011;31053;55.870;37.592;2023-05-07T04:34:45;3.22;;;1.98;;
45316;SDS011;31053;55.870;37.592;2023-05-07T04:37:51;2.95;;;2.00;;
45316;SDS011;31053;55.870;37.592;2023-05-07T04:40:56;2.93;;;1.93;;
45316;SDS011;31053;55.870;37.592;2023-05-07T04:44:05;3.72;;;2.03;;
45316;SDS011;31053;55.870;37.592;2023-05-07T04:47:12;9.95;;;2.65;;
45316;SDS011;31053;55.870;37.592;2023-05-07T04:50:17;3.92;;;2.08;;
45316;SDS011;31053;55.870;37.592;2023-05-07T04:53:25;4.03;;;1.85;;
45316;SDS011;31053;55.870;37.592;2023-05-07T04:56:31;3.45;;;1.80;;
45316;SDS011;31053;55.870;37.592;2023-05-07T04:59:40;6.75;;;2.08;;
45316;SDS011;31053;55.870;37.592;2023-05-07T05:02:45;6.60;;;1.90;;
45316;SDS011;31053;55.870;37.592;2023-05-07T05:05:52;1.38;;;1.10;;
45316;SDS011;31053;55.870;37.592;2023-05-07T05:08:59;5.38;;;3.13;;
45316;SDS011;31053;55.870;37.592;2023-05-07T05:12:06;4.87;;;2.40;;
45316;SDS011;31053;55.870;37.592;2023-05-07T05:15:16;5.20;;;2.70;;
45316;SDS011;31053;55.870;37.592;2023-05-07T05:18:21;2.13;;;1.75;;
45316;SDS011;31053;55.870;37.592;2023-05-07T05:25:11;3.38;;;1.45;;
45316;SDS011;31053;55.870;37.592;2023-05-07T05:28:23;2.78;;;1.45;;
45316;SDS011;31053;55.870;37.592;2023-05-07T05:31:28;4.63;;;1.00;;
45316;SDS011;31053;55.870;37.592;2023-05-07T05:34:33;8.20;;;0.85;;
45316;SDS011;31053;55.870;37.592;2023-05-07T05:37:43;8.48;;;1.08;;
45316;SDS011;31053;55.870;37.592;2023-05-07T05:41:11;10.02;;;1.38;;
45316;SDS011;31053;55.870;37.592;2023-05-07T05:47:27;6.85;;;0.90;;
45316;SDS011;31053;55.870;37.592;2023-05-07T05:50:33;7.70;;;1.15;;
45316;SDS011;31053;55.870;37.592;2023-05-07T05:53:48;1.60;;;0.93;;
45316;SDS011;31053;55.870;37.592;2023-05-07T05:56:54;0.77;;;0.57;;
45316;SDS011;31053;55.870;37.592;2023-05-07T06:00:01;2.22;;;0.95;;
45316;SDS011;31053;55.870;37.592;2023-05-07T06:03:11;3.70;;;1.23;;
45316;SDS011;31053;55.870;37.592;2023-05-07T06:06:17;2.33;;;1.27;;
45316;SDS011;31053;55.870;37.592;2023-05-07T06:09:23;2.97;;;0.85;;
45316;SDS011;31053;55.870;37.592;2023-05-07T06:12:29;1.02;;;0.70;;
45316;SDS011;31053;55.870;37.592;2023-05-07T06:15:33;8.55;;;0.82;;
45316;SDS011;31053;55.870;37.592;2023-05-07T06:18:44;2.15;;;0.75;;
45316;SDS011;31053;55.870;37.592;2023-05-07T06:21:52;3.38;;;0.85;;
45316;SDS011;31053;55.870;37.592;2023-05-07T06:24:58;3.85;;;1.48;;
45316;SDS011;31053;55.870;37.592;2023-05-07T06:28:03;0.77;;;0.75;;
45316;SDS011;31053;55.870;37.592;2023-05-07T06:31:14;3.15;;;0.95;;
45316;SDS011;31053;55.870;37.592;2023-05-07T06:34:27;16.00;;;1.73;;
45316;SDS011;31053;55.870;37.592;2023-05-07T06:37:41;4.15;;;1.00;;
45316;SDS011;31053;55.870;37.592;2023-05-07T06:40:51;3.67;;;0.90;;
45316;SDS011;31053;55.870;37.592;2023-05-07T06:43:59;1.85;;;0.70;;
45316;SDS011;31053;55.870;37.592;2023-05-07T06:47:19;5.18;;;0.40;;
45316;SDS011;31053;55.870;37.592;2023-05-07T06:50:28;3.75;;;1.05;;
45316;SDS011;31053;55.870;37.592;2023-05-07T06:53:36;0.82;;;0.63;;
45316;SDS011;31053;55.870;37.592;2023-05-07T06:56:46;4.50;;;0.60;;
45316;SDS011;31053;55.870;37.592;2023-05-07T06:59:52;1.13;;;0.57;;
45316;SDS011;31053;55.870;37.592;2023-05-07T07:02:59;4.90;;;0.73;;
45316;SDS011;31053;55.870;37.592;2023-05-07T07:06:11;13.20;;;1.00;;
45316;SDS011;31053;55.870;37.592;2023-05-07T07:09:16;2.53;;;0.90;;
45316;SDS011;31053;55.870;37.592;2023-05-07T07:12:21;9.82;;;1.15;;
45316;SDS011;31053;55.870;37.592;2023-05-07T07:15:38;1.05;;;0.70;;
45316;SDS011;31053;55.870;37.592;2023-05-07T07:18:44;3.78;;;0.75;;
45316;SDS011;31053;55.870;37.592;2023-05-07T07:21:50;1.15;;;0.43;;
45316;SDS011;31053;55.870;37.592;2023-05-07T07:24:57;8.55;;;0.65;;
45316;SDS011;31053;55.870;37.592;2023-05-07T07:28:06;5.03;;;0.50;;
45316;SDS011;31053;55.870;37.592;2023-05-07T07:31:14;3.65;;;0.93;;
45316;SDS011;31053;55.870;37.592;2023-05-07T07:34:27;1.38;;;0.60;;
45316;SDS011;31053;55.870;37.592;2023-05-07T07:37:34;1.48;;;0.57;;
45316;SDS011;31053;55.870;37.592;2023-05-07T07:40:41;0.95;;;0.50;;
45316;SDS011;31053;55.870;37.592;2023-05-07T07:47:39;3.10;;;0.80;;
45316;SDS011;31053;55.870;37.592;2023-05-07T07:50:50;4.22;;;0.73;;
45316;SDS011;31053;55.870;37.592;2023-05-07T07:53:59;0.38;;;0.38;;
45316;SDS011;31053;55.870;37.592;2023-05-07T08:13:56;2.67;;;0.80;;
45316;SDS011;31053;55.870;37.592;2023-05-07T08:26:16;1.98;;;0.60;;
45316;SDS011;31053;55.870;37.592;2023-05-07T08:29:23;0.47;;;0.40;;
45316;SDS011;31053;55.870;37.592;2023-05-07T08:32:30;2.90;;;0.90;;
45316;SDS011;31053;55.870;37.592;2023-05-07T08:35:39;3.05;;;1.20;;
45316;SDS011;31053;55.870;37.592;2023-05-07T08:43:12;1.75;;;0.80;;
45316;SDS011;31053;55.870;37.592;2023-05-07T08:46:28;3.47;;;0.60;;
45316;SDS011;31053;55.870;37.592;2023-05-07T08:49:40;1.13;;;0.50;;
45316;SDS011;31053;55.870;37.592;2023-05-07T08:52:58;3.78;;;0.70;;
45316;SDS011;31053;55.870;37.592;2023-05-07T09:01:16;4.70;;;0.40;;
45316;SDS011;31053;55.870;37.592;2023-05-07T09:04:58;1.17;;;0.60;;
45316;SDS011;31053;55.870;37.592;2023-05-07T09:08:03;0.82;;;0.60;;
45316;SDS011;31053;55.870;37.592;2023-05-07T09:11:10;4.40;;;0.60;;
45316;SDS011;31053;55.870;37.592;2023-05-07T09:14:26;0.40;;;0.40;;
45316;SDS011;31053;55.870;37.592;2023-05-07T09:17:39;0.82;;;0.30;;
45316;SDS011;31053;55.870;37.592;2023-05-07T09:20:48;2.50;;;0.70;;
45316;SDS011;31053;55.870;37.592;2023-05-07T09:23:59;1.63;;;0.80;;
45316;SDS011;31053;55.870;37.592;2023-05-07T09:27:19;0.60;;;0.30;;
45316;SDS011;31053;55.870;37.592;2023-05-07T09:30:32;3.47;;;0.68;;
45316;SDS011;31053;55.870;37.592;2023-05-07T09:33:43;0.43;;;0.40;;
45316;SDS011;31053;55.870;37.592;2023-05-07T09:43:32;1.17;;;0.40;;
45316;SDS011;31053;55.870;37.592;2023-05-07T10:13:28;3.60;;;0.50;;
45316;SDS011;31053;55.870;37.592;2023-05-07T10:28:15;3.60;;;0.57;;
45316;SDS011;31053;55.870;37.592;2023-05-07T10:35:51;1.67;;;0.75;;
45316;SDS011;31053;55.870;37.592;2023-05-07T10:39:26;4.53;;;0.75;;
45316;SDS011;31053;55.870;37.592;2023-05-07T10:43:05;5.72;;;0.70;;
45316;SDS011;31053;55.870;37.592;2023-05-07T10:46:18;3.10;;;0.90;;
45316;SDS011;31053;55.870;37.592;2023-05-07T10:49:31;2.55;;;0.63;;
45316;SDS011;31053;55.870;37.592;2023-05-07T10:52:43;1.23;;;0.60;;
45316;SDS011;31053;55.870;37.592;2023-05-07T10:59:46;1.02;;;0.60;;
45316;SDS011;31053;55.870;37.592;2023-05-07T11:03:07;4.60;;;1.02;;
45316;SDS011;31053;55.870;37.592;2023-05-07T11:06:30;4.80;;;0.88;;
45316;SDS011;31053;55.870;37.592;2023-05-07T11:10:00;0.73;;;0.40;;
45316;SDS011;31053;55.870;37.592;2023-05-07T11:13:41;0.85;;;0.60;;
45316;SDS011;31053;55.870;37.592;2023-05-07T11:17:03;0.63;;;0.50;;
45316;SDS011;31053;55.870;37.592;2023-05-07T11:20:49;4.72;;;0.98;;
45316;SDS011;31053;55.870;37.592;2023-05-07T11:39:22;4.78;;;0.40;;
45316;SDS011;31053;55.870;37.592;2023-05-07T11:42:48;3.42;;;0.47;;
45316;SDS011;31053;55.870;37.592;2023-05-07T11:49:52;1.40;;;0.75;;
45316;SDS011;31053;55.870;37.592;2023-05-07T11:52:59;2.78;;;0.75;;
45316;SDS011;31053;55.870;37.592;2023-05-07T11:56:07;1.98;;;0.93;;
45316;SDS011;31053;55.870;37.592;2023-05-07T11:59:16;1.42;;;0.50;;
45316;SDS011;31053;55.870;37.592;2023-05-07T12:02:25;10.13;;;2.35;;
45316;SDS011;31053;55.870;37.592;2023-05-07T12:05:33;6.65;;;1.10;;
45316;SDS011;31053;55.870;37.592;2023-05-07T12:08:39;7.80;;;0.87;;
45316;SDS011;31053;55.870;37.592;2023-05-07T12:11:45;2.95;;;0.88;;
45316;SDS011;31053;55.870;37.592;2023-05-07T12:14:51;2.60;;;0.70;;
45316;SDS011;31053;55.870;37.592;2023-05-07T12:17:59;2.33;;;0.95;;
45316;SDS011;31053;55.870;37.592;2023-05-07T12:21:05;4.70;;;0.93;;
45316;SDS011;31053;55.870;37.592;2023-05-07T12:24:13;1.45;;;0.60;;
45316;SDS011;31053;55.870;37.592;2023-05-07T12:27:20;1.63;;;0.93;;
45316;SDS011;31053;55.870;37.592;2023-05-07T12:30:25;2.25;;;0.82;;
45316;SDS011;31053;55.870;37.592;2023-05-07T12:33:31;2.90;;;0.80;;
45316;SDS011;31053;55.870;37.592;2023-05-07T12:36:37;2.55;;;0.60;;
45316;SDS011;31053;55.870;37.592;2023-05-07T12:39:49;1.17;;;0.80;;
45316;SDS011;31053;55.870;37.592;2023-05-07T12:42:54;7.50;;;1.00;;
45316;SDS011;31053;55.870;37.592;2023-05-07T12:46:03;4.78;;;1.42;;
45316;SDS011;31053;55.870;37.592;2023-05-07T12:49:10;9.77;;;1.70;;
45316;SDS011;31053;55.870;37.592;2023-05-07T12:52:16;5.70;;;0.70;;
45316;SDS011;31053;55.870;37.592;2023-05-07T12:55:23;4.22;;;0.57;;
45316;SDS011;31053;55.870;37.592;2023-05-07T12:58:29;12.73;;;1.00;;
45316;SDS011;31053;55.870;37.592;2023-05-07T13:01:36;1.08;;;0.55;;
45316;SDS011;31053;55.870;37.592;2023-05-07T13:04:51;3.92;;;0.63;;
45316;SDS011;31053;55.870;37.592;2023-05-07T13:07:57;1.35;;;0.85;;
45316;SDS011;31053;55.870;37.592;2023-05-07T13:11:03;0.60;;;0.45;;
45316;SDS011;31053;55.870;37.592;2023-05-07T13:14:12;7.13;;;0.80;;
45316;SDS011;31053;55.870;37.592;2023-05-07T13:17:21;1.50;;;0.80;;
45316;SDS011;31053;55.870;37.592;2023-05-07T13:20:25;3.40;;;0.80;;
45316;SDS011;31053;55.870;37.592;2023-05-07T13:23:31;1.63;;;0.60;;
45316;SDS011;31053;55.870;37.592;2023-05-07T13:26:36;0.85;;;0.60;;
45316;SDS011;31053;55.870;37.592;2023-05-07T13:29:41;2.33;;;0.88;;
45316;SDS011;31053;55.870;37.592;2023-05-07T13:32:47;4.80;;;0.85;;
45316;SDS011;31053;55.870;37.592;2023-05-07T13:39:10;2.80;;;0.93;;
45316;SDS011;31053;55.870;37.592;2023-05-07T13:42:18;1.35;;;0.85;;
45316;SDS011;31053;55.870;37.592;2023-05-07T13:45:27;6.22;;;1.00;;
45316;SDS011;31053;55.870;37.592;2023-05-07T13:48:38;1.65;;;1.00;;
45316;SDS011;31053;55.870;37.592;2023-05-07T13:52:07;1.27;;;0.65;;
45316;SDS011;31053;55.870;37.592;2023-05-07T13:55:11;2.40;;;0.65;;
45316;SDS011;31053;55.870;37.592;2023-05-07T13:58:16;1.42;;;0.90;;
45316;SDS011;31053;55.870;37.592;2023-05-07T14:01:23;1.45;;;0.47;;
45316;SDS011;31053;55.870;37.592;2023-05-07T14:04:28;1.63;;;0.80;;
45316;SDS011;31053;55.870;37.592;2023-05-07T14:07:33;3.00;;;0.65;;
45316;SDS011;31053;55.870;37.592;2023-05-07T14:10:38;2.13;;;0.80;;
45316;SDS011;31053;55.870;37.592;2023-05-07T14:13:45;9.07;;;2.72;;
45316;SDS011;31053;55.870;37.592;2023-05-07T14:16:50;4.03;;;2.22;;
45316;SDS011;31053;55.870;37.592;2023-05-07T14:19:55;2.53;;;1.02;;
45316;SDS011;31053;55.870;37.592;2023-05-07T14:23:02;4.53;;;0.82;;
45316;SDS011;31053;55.870;37.592;2023-05-07T14:26:06;1.05;;;0.80;;
45316;SDS011;31053;55.870;37.592;2023-05-07T14:29:12;2.55;;;0.85;;
45316;SDS011;31053;55.870;37.592;2023-05-07T14:32:18;2.97;;;0.65;;
45316;SDS011;31053;55.870;37.592;2023-05-07T14:35:31;5.20;;;0.85;;
45316;SDS011;31053;55.870;37.592;2023-05-07T14:38:35;4.13;;;1.02;;
45316;SDS011;31053;55.870;37.592;2023-05-07T14:41:40;8.07;;;0.90;;
45316;SDS011;31053;55.870;37.592;2023-05-07T14:44:45;4.25;;;0.63;;
45316;SDS011;31053;55.870;37.592;2023-05-07T14:50:57;1.15;;;0.82;;
45316;SDS011;31053;55.870;37.592;2023-05-07T14:54:01;5.53;;;0.90;;
45316;SDS011;31053;55.870;37.592;2023-05-07T14:57:08;1.98;;;0.70;;
45316;SDS011;31053;55.870;37.592;2023-05-07T15:00:14;9.05;;;1.15;;
45316;SDS011;31053;55.870;37.592;2023-05-07T15:03:21;3.35;;;0.80;;
45316;SDS011;31053;55.870;37.592;2023-05-07T15:06:26;4.05;;;1.10;;
45316;SDS011;31053;55.870;37.592;2023-05-07T15:09:31;3.00;;;0.95;;
45316;SDS011;31053;55.870;37.592;2023-05-07T15:12:36;1.23;;;0.70;;
45316;SDS011;31053;55.870;37.592;2023-05-07T15:15:42;1.60;;;0.68;;
45316;SDS011;31053;55.870;37.592;2023-05-07T15:18:50;1.75;;;0.65;;
45316;SDS011;31053;55.870;37.592;2023-05-07T15:21:58;1.95;;;0.90;;
45316;SDS011;31053;55.870;37.592;2023-05-07T15:25:06;3.53;;;0.60;;
45316;SDS011;31053;55.870;37.592;2023-05-07T15:28:14;3.13;;;0.95;;
45316;SDS011;31053;55.870;37.592;2023-05-07T15:31:24;7.68;;;1.08;;
45316;SDS011;31053;55.870;37.592;2023-05-07T15:35:01;3.13;;;0.73;;
45316;SDS011;31053;55.870;37.592;2023-05-07T15:38:25;4.75;;;1.17;;
45316;SDS011;31053;55.870;37.592;2023-05-07T15:41:58;5.35;;;0.90;;
45316;SDS011;31053;55.870;37.592;2023-05-07T15:46:06;3.35;;;1.20;;
45316;SDS011;31053;55.870;37.592;2023-05-07T15:49:59;1.33;;;0.60;;
45316;SDS011;31053;55.870;37.592;2023-05-07T16:02:40;3.88;;;0.98;;
45316;SDS011;31053;55.870;37.592;2023-05-07T16:06:12;3.60;;;1.27;;
45316;SDS011;31053;55.870;37.592;2023-05-07T16:09:17;2.65;;;0.90;;
45316;SDS011;31053;55.870;37.592;2023-05-07T16:12:49;3.38;;;1.10;;
45316;SDS011;31053;55.870;37.592;2023-05-07T16:15:55;1.98;;;1.00;;
45316;SDS011;31053;55.870;37.592;2023-05-07T16:19:20;9.77;;;1.40;;
45316;SDS011;31053;55.870;37.592;2023-05-07T16:22:28;5.07;;;1.10;;
45316;SDS011;31053;55.870;37.592;2023-05-07T16:25:36;2.47;;;1.15;;
45316;SDS011;31053;55.870;37.592;2023-05-07T16:28:42;15.65;;;1.75;;
45316;SDS011;31053;55.870;37.592;2023-05-07T16:31:51;4.95;;;1.85;;
45316;SDS011;31053;55.870;37.592;2023-05-07T16:34:57;1.80;;;1.00;;
45316;SDS011;31053;55.870;37.592;2023-05-07T16:38:02;4.40;;;1.05;;
45316;SDS011;31053;55.870;37.592;2023-05-07T16:41:13;7.00;;;1.83;;
45316;SDS011;31053;55.870;37.592;2023-05-07T16:44:18;8.88;;;1.77;;
45316;SDS011;31053;55.870;37.592;2023-05-07T16:47:23;4.28;;;1.85;;
45316;SDS011;31053;55.870;37.592;2023-05-07T16:50:28;1.55;;;0.98;;
45316;SDS011;31053;55.870;37.592;2023-05-07T16:53:33;3.83;;;1.40;;
45316;SDS011;31053;55.870;37.592;2023-05-07T16:56:42;5.82;;;1.17;;
45316;SDS011;31053;55.870;37.592;2023-05-07T17:00:11;7.82;;;2.55;;
45316;SDS011;31053;55.870;37.592;2023-05-07T17:03:16;10.02;;;2.25;;
45316;SDS011;31053;55.870;37.592;2023-05-07T17:06:21;4.25;;;1.17;;
45316;SDS011;31053;55.870;37.592;2023-05-07T17:09:26;2.55;;;1.17;;
45316;SDS011;31053;55.870;37.592;2023-05-07T17:12:31;2.60;;;1.10;;
45316;SDS011;31053;55.870;37.592;2023-05-07T17:15:40;3.45;;;0.95;;
45316;SDS011;31053;55.870;37.592;2023-05-07T17:18:46;7.85;;;2.03;;
45316;SDS011;31053;55.870;37.592;2023-05-07T17:21:51;5.55;;;1.65;;
45316;SDS011;31053;55.870;37.592;2023-05-07T17:25:06;3.42;;;1.58;;
45316;SDS011;31053;55.870;37.592;2023-05-07T17:28:14;6.40;;;1.77;;
45316;SDS011;31053;55.870;37.592;2023-05-07T17:31:27;6.50;;;2.20;;
45316;SDS011;31053;55.870;37.592;2023-05-07T17:34:44;4.13;;;1.30;;
45316;SDS011;31053;55.870;37.592;2023-05-07T17:38:20;2.28;;;0.80;;
45316;SDS011;31053;55.870;37.592;2023-05-07T17:41:48;3.83;;;1.50;;
45316;SDS011;31053;55.870;37.592;2023-05-07T17:44:53;6.93;;;1.50;;
45316;SDS011;31053;55.870;37.592;2023-05-07T17:47:59;6.30;;;1.60;;
45316;SDS011;31053;55.870;37.592;2023-05-07T17:51:06;6.68;;;3.03;;
45316;SDS011;31053;55.870;37.592;2023-05-07T17:54:11;9.70;;;3.50;;
45316;SDS011;31053;55.870;37.592;2023-05-07T17:57:17;2.95;;;1.38;;
45316;SDS011;31053;55.870;37.592;2023-05-07T18:00:23;3.72;;;1.27;;
45316;SDS011;31053;55.870;37.592;2023-05-07T18:03:31;2.10;;;1.35;;
45316;SDS011;31053;55.870;37.592;2023-05-07T18:06:37;4.45;;;1.13;;
45316;SDS011;31053;55.870;37.592;2023-05-07T18:09:43;3.38;;;1.48;;
45316;SDS011;31053;55.870;37.592;2023-05-07T18:12:48;4.57;;;1.67;;
45316;SDS011;31053;55.870;37.592;2023-05-07T18:15:53;14.02;;;1.83;;
45316;SDS011;31053;55.870;37.592;2023-05-07T18:18:58;3.55;;;1.02;;
45316;SDS011;31053;55.870;37.592;2023-05-07T18:22:04;5.95;;;1.38;;
45316;SDS011;31053;55.870;37.592;2023-05-07T18:25:10;4.03;;;1.50;;
45316;SDS011;31053;55.870;37.592;2023-05-07T18:28:14;2.35;;;0.70;;
45316;SDS011;31053;55.870;37.592;2023-05-07T18:31:21;7.05;;;3.60;;
45316;SDS011;31053;55.870;37.592;2023-05-07T18:34:26;8.93;;;2.63;;
45316;SDS011;31053;55.870;37.592;2023-05-07T18:37:31;5.63;;;1.60;;
45316;SDS011;31053;55.870;37.592;2023-05-07T18:40:38;3.15;;;0.93;;
45316;SDS011;31053;55.870;37.592;2023-05-07T18:43:49;1.98;;;1.00;;
45316;SDS011;31053;55.870;37.592;2023-05-07T18:46:56;2.80;;;1.35;;
45316;SDS011;31053;55.870;37.592;2023-05-07T18:50:01;1.83;;;0.90;;
45316;SDS011;31053;55.870;37.592;2023-05-07T18:53:09;1.73;;;1.10;;
45316;SDS011;31053;55.870;37.592;2023-05-07T18:56:23;2.15;;;1.10;;
45316;SDS011;31053;55.870;37.592;2023-05-07T18:59:29;7.95;;;1.40;;
45316;SDS011;31053;55.870;37.592;2023-05-07T19:02:34;8.35;;;1.77;;
45316;SDS011;31053;55.870;37.592;2023-05-07T19:05:41;2.40;;;1.00;;
45316;SDS011;31053;55.870;37.592;2023-05-07T19:08:46;1.50;;;1.10;;
45316;SDS011;31053;55.870;37.592;2023-05-07T19:11:51;2.42;;;1.23;;
45316;SDS011;31053;55.870;37.592;2023-05-07T19:14:57;6.28;;;2.08;;
45316;SDS011;31053;55.870;37.592;2023-05-07T19:18:01;4.87;;;1.50;;
45316;SDS011;31053;55.870;37.592;2023-05-07T19:21:06;3.72;;;1.70;;
45316;SDS011;31053;55.870;37.592;2023-05-07T19:24:12;18.63;;;1.95;;
45316;SDS011;31053;55.870;37.592;2023-05-07T19:27:17;11.90;;;1.95;;
45316;SDS011;31053;55.870;37.592;2023-05-07T19:30:24;19.38;;;3.28;;
45316;SDS011;31053;55.870;37.592;2023-05-07T19:33:30;19.48;;;2.15;;
45316;SDS011;31053;55.870;37.592;2023-05-07T19:36:34;17.17;;;2.78;;
45316;SDS011;31053;55.870;37.592;2023-05-07T19:39:40;11.27;;;2.45;;
45316;SDS011;31053;55.870;37.592;2023-05-07T19:42:45;18.23;;;2.35;;
45316;SDS011;31053;55.870;37.592;2023-05-07T19:45:53;4.90;;;2.10;;
45316;SDS011;31053;55.870;37.592;2023-05-07T19:49:00;4.82;;;1.70;;
45316;SDS011;31053;55.870;37.592;2023-05-07T19:52:05;13.63;;;2.72;;
45316;SDS011;31053;55.870;37.592;2023-05-07T19:55:11;16.98;;;3.25;;
45316;SDS011;31053;55.870;37.592;2023-05-07T19:58:16;14.52;;;2.22;;
45316;SDS011;31053;55.870;37.592;2023-05-07T20:01:21;20.58;;;2.65;;
45316;SDS011;31053;55.870;37.592;2023-05-07T20:04:26;18.15;;;3.33;;
45316;SDS011;31053;55.870;37.592;2023-05-07T20:07:35;14.90;;;2.75;;
45316;SDS011;31053;55.870;37.592;2023-05-07T20:10:41;11.50;;;3.20;;
45316;SDS011;31053;55.870;37.592;2023-05-07T20:13:46;12.30;;;3.42;;
45316;SDS011;31053;55.870;37.592;2023-05-07T20:16:51;21.88;;;4.20;;
45316;SDS011;31053;55.870;37.592;2023-05-07T20:19:56;22.58;;;3.80;;
45316;SDS011;31053;55.870;37.592;2023-05-07T20:23:02;19.95;;;4.53;;
45316;SDS011;31053;55.870;37.592;2023-05-07T20:26:07;15.27;;;3.03;;
45316;SDS011;31053;55.870;37.592;2023-05-07T20:29:12;8.75;;;3.33;;
45316;SDS011;31053;55.870;37.592;2023-05-07T20:32:17;10.60;;;4.38;;
45316;SDS011;31053;55.870;37.592;2023-05-07T20:35:22;21.27;;;3.75;;
45316;SDS011;31053;55.870;37.592;2023-05-07T20:38:31;13.07;;;2.97;;
45316;SDS011;31053;55.870;37.592;2023-05-07T20:41:43;9.60;;;2.83;;
45316;SDS011;31053;55.870;37.592;2023-05-07T20:44:48;7.82;;;3.53;;
45316;SDS011;31053;55.870;37.592;2023-05-07T20:47:56;15.35;;;3.33;;
45316;SDS011;31053;55.870;37.592;2023-05-07T20:51:02;11.38;;;3.58;;
45316;SDS011;31053;55.870;37.592;2023-05-07T20:54:08;21.63;;;3.92;;
45316;SDS011;31053;55.870;37.592;2023-05-07T20:57:14;12.88;;;3.70;;
45316;SDS011;31053;55.870;37.592;2023-05-07T21:00:20;10.20;;;4.13;;
45316;SDS011;31053;55.870;37.592;2023-05-07T21:03:25;23.98;;;4.20;;
45316;SDS011;31053;55.870;37.592;2023-05-07T21:06:30;12.82;;;3.08;;
45316;SDS011;31053;55.870;37.592;2023-05-07T21:09:35;18.13;;;4.00;;
45316;SDS011;31053;55.870;37.592;2023-05-07T21:12:41;10.75;;;2.65;;
45316;SDS011;31053;55.870;37.592;2023-05-07T21:15:46;17.40;;;3.35;;
45316;SDS011;31053;55.870;37.592;2023-05-07T21:18:51;10.85;;;3.45;;
45316;SDS011;31053;55.870;37.592;2023-05-07T21:21:56;18.63;;;4.10;;